This is the latest recevied weather packets stored in our database for station/object W4WYD-2. If no packets are shown the sender has not sent any weather packets the latest 10 day(s).
| Time | Temp. | Humidity | Pressure | Rain* | Wind** | Luminosity | Snow |
|---|---|---|---|---|---|---|---|
| 1787603976 | 30.56° C | 46% | 1017.3 hPa | 0 mm | - | 601 W/m² | - |
| 1787603675 | 30° C | 49% | 1017.2 hPa | 0 mm | - | 581 W/m² | - |
| 1787603371 | - | - | - | 0 mm | - | - | - |
| 1787603067 | - | - | - | 0 mm | - | - | - |
| 1787602764 | - | - | - | 0 mm | - | - | - |
| 1787602463 | - | - | - | 0 mm | - | - | - |
| 1787602157 | - | - | - | 0 mm | - | - | - |
| 1787601412 | 30.56° C | 47% | 1017.9 hPa | 0 mm | - | 744 W/m² | - |
| 1787601111 | 30.56° C | 47% | 1017.9 hPa | 0 mm | - | 744 W/m² | - |
| 1787600805 | 30° C | 46% | 1017.8 hPa | 0 mm | - | 743 W/m² | - |
| 1787600501 | 30° C | 47% | 1018 hPa | 0 mm | - | 761 W/m² | - |
| 1787600196 | 30° C | 48% | 1018.1 hPa | 0 mm | - | 771 W/m² | - |
| 1787599893 | 30° C | 47% | 1017.9 hPa | 0 mm | - | 779 W/m² | - |
| 1787599589 | 30° C | 45% | 1018.1 hPa | 0 mm | - | 792 W/m² | - |
| 1787599285 | 30° C | 44% | 1017.9 hPa | 0 mm | - | 799 W/m² | - |
| 1787598980 | 29.44° C | 49% | 1018.5 hPa | 0 mm | - | 810 W/m² | - |
| 1787598675 | 29.44° C | 45% | 1018.4 hPa | 0 mm | - | 817 W/m² | - |
| 1787598375 | 30° C | 46% | 1018.4 hPa | 0 mm | - | 827 W/m² | - |
| 1787598072 | 29.44° C | 47% | 1018.5 hPa | 0 mm | - | 833 W/m² | - |
| 1787597767 | 29.44° C | 46% | 1018.6 hPa | 0 mm | - | 845 W/m² | - |
| 1787597465 | 29.44° C | 49% | 1018.5 hPa | 0 mm | - | 850 W/m² | - |
| 1787597160 | 29.44° C | 48% | 1018.5 hPa | 0 mm | - | 856 W/m² | - |
| 1787596856 | 29.44° C | 47% | 1018.5 hPa | 0 mm | - | 862 W/m² | - |
| 1787596551 | 28.89° C | 50% | 1018.8 hPa | 0 mm | - | 870 W/m² | - |
| 1787596246 | 28.89° C | 52% | 1018.8 hPa | 0 mm | - | 876 W/m² | - |
* Rain latest hour (hover to see other rain measurements)
** Current wind speed in m/s (hover to see current wind gust speed)